sensor_id;sensor_type;location;lat;lon;timestamp;P1;durP1;ratioP1;P2;durP2;ratioP2
24325;SDS011;12448;45.532;5.290;2024-01-07T00:01:31;672.22;;;21.95;;
24325;SDS011;12448;45.532;5.290;2024-01-07T00:03:56;756.38;;;22.85;;
24325;SDS011;12448;45.532;5.290;2024-01-07T00:06:22;676.60;;;22.65;;
24325;SDS011;12448;45.532;5.290;2024-01-07T00:08:47;974.00;;;25.75;;
24325;SDS011;12448;45.532;5.290;2024-01-07T00:11:13;782.15;;;22.40;;
24325;SDS011;12448;45.532;5.290;2024-01-07T00:13:39;1091.88;;;30.35;;
24325;SDS011;12448;45.532;5.290;2024-01-07T00:16:04;1142.60;;;34.83;;
24325;SDS011;12448;45.532;5.290;2024-01-07T00:18:30;880.13;;;26.02;;
24325;SDS011;12448;45.532;5.290;2024-01-07T00:20:56;1065.72;;;31.27;;
24325;SDS011;12448;45.532;5.290;2024-01-07T00:23:21;1382.85;;;37.95;;
24325;SDS011;12448;45.532;5.290;2024-01-07T00:25:48;767.50;;;25.98;;
24325;SDS011;12448;45.532;5.290;2024-01-07T00:28:13;1064.43;;;34.00;;
24325;SDS011;12448;45.532;5.290;2024-01-07T00:30:39;689.50;;;26.52;;
24325;SDS011;12448;45.532;5.290;2024-01-07T00:33:04;927.20;;;28.33;;
24325;SDS011;12448;45.532;5.290;2024-01-07T00:35:30;639.00;;;21.48;;
24325;SDS011;12448;45.532;5.290;2024-01-07T00:37:56;1226.18;;;36.03;;
24325;SDS011;12448;45.532;5.290;2024-01-07T00:40:25;1293.70;;;39.60;;
24325;SDS011;12448;45.532;5.290;2024-01-07T00:42:51;1250.35;;;39.17;;
24325;SDS011;12448;45.532;5.290;2024-01-07T00:45:17;1374.80;;;39.25;;
24325;SDS011;12448;45.532;5.290;2024-01-07T00:47:43;883.72;;;26.05;;
24325;SDS011;12448;45.532;5.290;2024-01-07T00:50:09;1061.72;;;32.78;;
24325;SDS011;12448;45.532;5.290;2024-01-07T00:52:34;734.45;;;23.48;;
24325;SDS011;12448;45.532;5.290;2024-01-07T00:55:02;960.70;;;30.02;;
24325;SDS011;12448;45.532;5.290;2024-01-07T00:57:29;896.67;;;27.58;;
24325;SDS011;12448;45.532;5.290;2024-01-07T00:59:55;805.83;;;25.80;;
24325;SDS011;12448;45.532;5.290;2024-01-07T01:02:20;499.38;;;15.82;;
24325;SDS011;12448;45.532;5.290;2024-01-07T01:04:46;903.75;;;26.98;;
24325;SDS011;12448;45.532;5.290;2024-01-07T01:07:13;948.30;;;30.60;;
24325;SDS011;12448;45.532;5.290;2024-01-07T01:09:39;1015.42;;;30.52;;
24325;SDS011;12448;45.532;5.290;2024-01-07T01:12:05;1193.93;;;36.28;;
24325;SDS011;12448;45.532;5.290;2024-01-07T01:14:31;570.25;;;16.90;;
24325;SDS011;12448;45.532;5.290;2024-01-07T01:16:56;1200.13;;;39.50;;
24325;SDS011;12448;45.532;5.290;2024-01-07T01:19:22;993.47;;;31.80;;
24325;SDS011;12448;45.532;5.290;2024-01-07T01:21:48;128.68;;;5.95;;
24325;SDS011;12448;45.532;5.290;2024-01-07T01:24:14;28.17;;;4.53;;
24325;SDS011;12448;45.532;5.290;2024-01-07T01:26:40;165.80;;;7.63;;
24325;SDS011;12448;45.532;5.290;2024-01-07T01:29:05;498.38;;;16.33;;
24325;SDS011;12448;45.532;5.290;2024-01-07T01:31:31;697.67;;;21.13;;
24325;SDS011;12448;45.532;5.290;2024-01-07T01:33:56;432.95;;;14.20;;
24325;SDS011;12448;45.532;5.290;2024-01-07T01:36:22;316.27;;;10.38;;
24325;SDS011;12448;45.532;5.290;2024-01-07T01:38:48;371.55;;;12.98;;
24325;SDS011;12448;45.532;5.290;2024-01-07T01:41:14;97.00;;;6.60;;
24325;SDS011;12448;45.532;5.290;2024-01-07T01:43:39;9.25;;;3.75;;
24325;SDS011;12448;45.532;5.290;2024-01-07T01:46:05;12.55;;;3.97;;
24325;SDS011;12448;45.532;5.290;2024-01-07T01:48:31;38.83;;;4.78;;
24325;SDS011;12448;45.532;5.290;2024-01-07T01:50:57;355.30;;;14.68;;
24325;SDS011;12448;45.532;5.290;2024-01-07T01:53:24;418.08;;;13.30;;
24325;SDS011;12448;45.532;5.290;2024-01-07T01:55:51;4.10;;;3.28;;
24325;SDS011;12448;45.532;5.290;2024-01-07T01:58:18;5.97;;;4.15;;
24325;SDS011;12448;45.532;5.290;2024-01-07T02:00:45;5.20;;;3.60;;
24325;SDS011;12448;45.532;5.290;2024-01-07T02:03:11;10.70;;;3.70;;
24325;SDS011;12448;45.532;5.290;2024-01-07T02:05:36;11.35;;;5.13;;
24325;SDS011;12448;45.532;5.290;2024-01-07T02:08:02;7.70;;;3.50;;
24325;SDS011;12448;45.532;5.290;2024-01-07T02:10:29;5.65;;;3.53;;
24325;SDS011;12448;45.532;5.290;2024-01-07T02:12:59;8.57;;;4.45;;
24325;SDS011;12448;45.532;5.290;2024-01-07T02:15:25;7.18;;;4.07;;
24325;SDS011;12448;45.532;5.290;2024-01-07T02:17:51;4.90;;;4.05;;
24325;SDS011;12448;45.532;5.290;2024-01-07T02:20:17;8.15;;;4.50;;
24325;SDS011;12448;45.532;5.290;2024-01-07T02:22:42;4.75;;;2.15;;
24325;SDS011;12448;45.532;5.290;2024-01-07T02:25:08;58.47;;;5.03;;
24325;SDS011;12448;45.532;5.290;2024-01-07T02:27:34;551.80;;;18.25;;
24325;SDS011;12448;45.532;5.290;2024-01-07T02:29:59;772.97;;;23.35;;
24325;SDS011;12448;45.532;5.290;2024-01-07T02:32:25;788.50;;;24.38;;
24325;SDS011;12448;45.532;5.290;2024-01-07T02:34:51;319.35;;;11.27;;
24325;SDS011;12448;45.532;5.290;2024-01-07T02:37:17;354.85;;;11.75;;
24325;SDS011;12448;45.532;5.290;2024-01-07T02:39:42;211.23;;;9.15;;
24325;SDS011;12448;45.532;5.290;2024-01-07T02:42:09;8.82;;;4.22;;
24325;SDS011;12448;45.532;5.290;2024-01-07T02:44:35;8.73;;;5.68;;
24325;SDS011;12448;45.532;5.290;2024-01-07T02:47:01;13.85;;;6.60;;
24325;SDS011;12448;45.532;5.290;2024-01-07T02:49:26;14.38;;;5.65;;
24325;SDS011;12448;45.532;5.290;2024-01-07T02:51:53;12.98;;;6.50;;
24325;SDS011;12448;45.532;5.290;2024-01-07T02:54:19;12.43;;;7.15;;
24325;SDS011;12448;45.532;5.290;2024-01-07T02:56:44;11.93;;;7.35;;
24325;SDS011;12448;45.532;5.290;2024-01-07T02:59:10;12.23;;;6.68;;
24325;SDS011;12448;45.532;5.290;2024-01-07T03:01:35;11.43;;;6.82;;
24325;SDS011;12448;45.532;5.290;2024-01-07T03:04:05;11.68;;;7.03;;
24325;SDS011;12448;45.532;5.290;2024-01-07T03:06:32;9.30;;;5.20;;
24325;SDS011;12448;45.532;5.290;2024-01-07T03:08:58;7.95;;;5.25;;
24325;SDS011;12448;45.532;5.290;2024-01-07T03:11:24;11.52;;;7.00;;
24325;SDS011;12448;45.532;5.290;2024-01-07T03:13:49;24.65;;;10.68;;
24325;SDS011;12448;45.532;5.290;2024-01-07T03:16:21;7.43;;;4.82;;
24325;SDS011;12448;45.532;5.290;2024-01-07T03:18:47;8.35;;;5.53;;
24325;SDS011;12448;45.532;5.290;2024-01-07T03:21:19;8.43;;;5.30;;
24325;SDS011;12448;45.532;5.290;2024-01-07T03:23:46;7.53;;;4.72;;
24325;SDS011;12448;45.532;5.290;2024-01-07T03:26:12;12.80;;;7.28;;
24325;SDS011;12448;45.532;5.290;2024-01-07T03:28:38;15.18;;;7.28;;
24325;SDS011;12448;45.532;5.290;2024-01-07T03:31:18;6.53;;;4.82;;
24325;SDS011;12448;45.532;5.290;2024-01-07T03:33:44;7.40;;;4.93;;
24325;SDS011;12448;45.532;5.290;2024-01-07T03:36:13;8.05;;;5.95;;
24325;SDS011;12448;45.532;5.290;2024-01-07T03:38:39;5.65;;;4.05;;
24325;SDS011;12448;45.532;5.290;2024-01-07T03:41:06;10.15;;;6.00;;
24325;SDS011;12448;45.532;5.290;2024-01-07T03:43:32;7.07;;;4.95;;
24325;SDS011;12448;45.532;5.290;2024-01-07T03:45:57;13.30;;;6.63;;
24325;SDS011;12448;45.532;5.290;2024-01-07T03:48:23;7.82;;;4.80;;
24325;SDS011;12448;45.532;5.290;2024-01-07T03:50:49;8.23;;;5.80;;
24325;SDS011;12448;45.532;5.290;2024-01-07T03:53:15;9.48;;;5.93;;
24325;SDS011;12448;45.532;5.290;2024-01-07T03:55:41;7.43;;;5.05;;
24325;SDS011;12448;45.532;5.290;2024-01-07T03:58:07;9.40;;;5.88;;
24325;SDS011;12448;45.532;5.290;2024-01-07T04:00:33;10.50;;;6.22;;
24325;SDS011;12448;45.532;5.290;2024-01-07T04:02:59;9.70;;;5.45;;
24325;SDS011;12448;45.532;5.290;2024-01-07T04:05:25;7.05;;;4.85;;
24325;SDS011;12448;45.532;5.290;2024-01-07T04:07:51;7.53;;;4.95;;
24325;SDS011;12448;45.532;5.290;2024-01-07T04:10:16;11.18;;;6.93;;
24325;SDS011;12448;45.532;5.290;2024-01-07T04:12:42;9.93;;;5.25;;
24325;SDS011;12448;45.532;5.290;2024-01-07T04:15:08;11.48;;;7.00;;
24325;SDS011;12448;45.532;5.290;2024-01-07T04:17:35;8.52;;;5.00;;
24325;SDS011;12448;45.532;5.290;2024-01-07T04:20:00;8.35;;;5.60;;
24325;SDS011;12448;45.532;5.290;2024-01-07T04:22:26;10.55;;;5.63;;
24325;SDS011;12448;45.532;5.290;2024-01-07T04:24:52;11.27;;;6.53;;
24325;SDS011;12448;45.532;5.290;2024-01-07T04:27:17;9.45;;;5.88;;
24325;SDS011;12448;45.532;5.290;2024-01-07T04:29:43;11.18;;;5.43;;
24325;SDS011;12448;45.532;5.290;2024-01-07T04:32:08;8.18;;;4.03;;
24325;SDS011;12448;45.532;5.290;2024-01-07T04:34:34;8.15;;;5.18;;
24325;SDS011;12448;45.532;5.290;2024-01-07T04:36:59;9.18;;;4.93;;
24325;SDS011;12448;45.532;5.290;2024-01-07T04:39:25;10.35;;;6.00;;
24325;SDS011;12448;45.532;5.290;2024-01-07T04:41:51;13.50;;;6.72;;
24325;SDS011;12448;45.532;5.290;2024-01-07T04:44:17;8.02;;;5.28;;
24325;SDS011;12448;45.532;5.290;2024-01-07T04:46:42;12.90;;;6.15;;
24325;SDS011;12448;45.532;5.290;2024-01-07T04:49:08;10.90;;;5.50;;
24325;SDS011;12448;45.532;5.290;2024-01-07T04:51:33;10.00;;;6.45;;
24325;SDS011;12448;45.532;5.290;2024-01-07T04:53:59;9.10;;;5.82;;
24325;SDS011;12448;45.532;5.290;2024-01-07T04:56:25;10.13;;;6.07;;
24325;SDS011;12448;45.532;5.290;2024-01-07T04:58:50;10.07;;;5.68;;
24325;SDS011;12448;45.532;5.290;2024-01-07T05:01:16;7.85;;;5.20;;
24325;SDS011;12448;45.532;5.290;2024-01-07T05:03:41;9.68;;;6.03;;
24325;SDS011;12448;45.532;5.290;2024-01-07T05:06:10;7.85;;;5.47;;
24325;SDS011;12448;45.532;5.290;2024-01-07T05:08:36;9.00;;;5.30;;
24325;SDS011;12448;45.532;5.290;2024-01-07T05:11:03;9.73;;;5.72;;
24325;SDS011;12448;45.532;5.290;2024-01-07T05:13:29;12.70;;;5.97;;
24325;SDS011;12448;45.532;5.290;2024-01-07T05:15:55;9.27;;;5.75;;
24325;SDS011;12448;45.532;5.290;2024-01-07T05:18:21;8.18;;;5.10;;
24325;SDS011;12448;45.532;5.290;2024-01-07T05:20:48;9.25;;;5.13;;
24325;SDS011;12448;45.532;5.290;2024-01-07T05:23:14;8.18;;;4.85;;
24325;SDS011;12448;45.532;5.290;2024-01-07T05:25:39;7.68;;;5.43;;
24325;SDS011;12448;45.532;5.290;2024-01-07T05:28:07;8.88;;;5.13;;
24325;SDS011;12448;45.532;5.290;2024-01-07T05:30:32;7.45;;;4.60;;
24325;SDS011;12448;45.532;5.290;2024-01-07T05:32:58;7.45;;;4.68;;
24325;SDS011;12448;45.532;5.290;2024-01-07T05:35:23;7.13;;;4.05;;
24325;SDS011;12448;45.532;5.290;2024-01-07T05:37:49;10.93;;;4.50;;
24325;SDS011;12448;45.532;5.290;2024-01-07T05:40:15;7.25;;;4.05;;
24325;SDS011;12448;45.532;5.290;2024-01-07T05:42:40;8.15;;;5.18;;
24325;SDS011;12448;45.532;5.290;2024-01-07T05:45:06;8.27;;;5.43;;
24325;SDS011;12448;45.532;5.290;2024-01-07T05:47:32;7.83;;;5.33;;
24325;SDS011;12448;45.532;5.290;2024-01-07T05:49:57;10.00;;;6.10;;
24325;SDS011;12448;45.532;5.290;2024-01-07T05:52:23;9.38;;;5.78;;
24325;SDS011;12448;45.532;5.290;2024-01-07T05:54:49;7.40;;;5.03;;
24325;SDS011;12448;45.532;5.290;2024-01-07T05:57:14;8.17;;;5.27;;
24325;SDS011;12448;45.532;5.290;2024-01-07T05:59:40;9.07;;;6.20;;
24325;SDS011;12448;45.532;5.290;2024-01-07T06:02:06;9.00;;;5.70;;
24325;SDS011;12448;45.532;5.290;2024-01-07T06:04:31;6.60;;;4.70;;
24325;SDS011;12448;45.532;5.290;2024-01-07T06:06:57;11.07;;;6.97;;
24325;SDS011;12448;45.532;5.290;2024-01-07T06:09:23;9.95;;;6.60;;
24325;SDS011;12448;45.532;5.290;2024-01-07T06:11:49;8.70;;;5.82;;
24325;SDS011;12448;45.532;5.290;2024-01-07T06:14:15;9.02;;;5.72;;
24325;SDS011;12448;45.532;5.290;2024-01-07T06:16:41;7.47;;;5.23;;
24325;SDS011;12448;45.532;5.290;2024-01-07T06:19:07;7.77;;;5.07;;
24325;SDS011;12448;45.532;5.290;2024-01-07T06:21:33;8.97;;;5.87;;
24325;SDS011;12448;45.532;5.290;2024-01-07T06:23:58;8.20;;;5.10;;
24325;SDS011;12448;45.532;5.290;2024-01-07T06:26:24;10.15;;;6.45;;
24325;SDS011;12448;45.532;5.290;2024-01-07T06:28:49;7.07;;;4.47;;
24325;SDS011;12448;45.532;5.290;2024-01-07T06:31:15;5.60;;;3.43;;
24325;SDS011;12448;45.532;5.290;2024-01-07T06:33:41;6.73;;;4.30;;
24325;SDS011;12448;45.532;5.290;2024-01-07T06:36:06;6.70;;;4.53;;
24325;SDS011;12448;45.532;5.290;2024-01-07T06:38:32;7.57;;;4.53;;
24325;SDS011;12448;45.532;5.290;2024-01-07T06:40:58;9.83;;;6.97;;
24325;SDS011;12448;45.532;5.290;2024-01-07T06:43:29;10.53;;;7.37;;
24325;SDS011;12448;45.532;5.290;2024-01-07T06:45:55;6.67;;;4.40;;
24325;SDS011;12448;45.532;5.290;2024-01-07T06:48:21;9.03;;;6.57;;
24325;SDS011;12448;45.532;5.290;2024-01-07T06:50:46;5.23;;;3.50;;
24325;SDS011;12448;45.532;5.290;2024-01-07T06:53:12;8.33;;;5.70;;
24325;SDS011;12448;45.532;5.290;2024-01-07T06:55:38;6.30;;;4.07;;
24325;SDS011;12448;45.532;5.290;2024-01-07T06:58:04;9.47;;;6.97;;
24325;SDS011;12448;45.532;5.290;2024-01-07T07:00:30;5.40;;;3.73;;
24325;SDS011;12448;45.532;5.290;2024-01-07T07:02:55;8.47;;;5.77;;
24325;SDS011;12448;45.532;5.290;2024-01-07T07:05:21;10.90;;;7.07;;
24325;SDS011;12448;45.532;5.290;2024-01-07T07:07:47;7.40;;;5.10;;
24325;SDS011;12448;45.532;5.290;2024-01-07T07:10:12;6.60;;;3.80;;
24325;SDS011;12448;45.532;5.290;2024-01-07T07:12:38;11.53;;;8.53;;
24325;SDS011;12448;45.532;5.290;2024-01-07T07:15:03;21.67;;;10.80;;
24325;SDS011;12448;45.532;5.290;2024-01-07T07:17:29;16.87;;;9.97;;
24325;SDS011;12448;45.532;5.290;2024-01-07T07:19:55;24.23;;;14.27;;
24325;SDS011;12448;45.532;5.290;2024-01-07T07:22:20;30.10;;;13.40;;
24325;SDS011;12448;45.532;5.290;2024-01-07T07:24:46;11.50;;;6.50;;
24325;SDS011;12448;45.532;5.290;2024-01-07T07:27:11;12.73;;;8.57;;
24325;SDS011;12448;45.532;5.290;2024-01-07T07:29:37;10.50;;;6.70;;
24325;SDS011;12448;45.532;5.290;2024-01-07T07:32:03;7.37;;;5.00;;
24325;SDS011;12448;45.532;5.290;2024-01-07T07:34:29;15.38;;;10.63;;
24325;SDS011;12448;45.532;5.290;2024-01-07T07:36:54;11.50;;;7.13;;
24325;SDS011;12448;45.532;5.290;2024-01-07T07:39:20;18.37;;;9.57;;
24325;SDS011;12448;45.532;5.290;2024-01-07T07:41:46;21.37;;;13.00;;
24325;SDS011;12448;45.532;5.290;2024-01-07T07:44:13;18.27;;;10.30;;
24325;SDS011;12448;45.532;5.290;2024-01-07T07:46:38;14.33;;;7.87;;
24325;SDS011;12448;45.532;5.290;2024-01-07T07:49:04;22.98;;;13.68;;
24325;SDS011;12448;45.532;5.290;2024-01-07T07:51:30;12.83;;;9.37;;
24325;SDS011;12448;45.532;5.290;2024-01-07T07:53:55;13.83;;;8.40;;
24325;SDS011;12448;45.532;5.290;2024-01-07T07:56:22;17.65;;;10.10;;
24325;SDS011;12448;45.532;5.290;2024-01-07T07:58:47;11.77;;;6.67;;
24325;SDS011;12448;45.532;5.290;2024-01-07T08:01:13;10.33;;;7.07;;
24325;SDS011;12448;45.532;5.290;2024-01-07T08:03:39;12.40;;;6.57;;
24325;SDS011;12448;45.532;5.290;2024-01-07T08:06:04;12.00;;;7.90;;
24325;SDS011;12448;45.532;5.290;2024-01-07T08:08:30;15.07;;;10.07;;
24325;SDS011;12448;45.532;5.290;2024-01-07T08:10:56;9.87;;;5.97;;
24325;SDS011;12448;45.532;5.290;2024-01-07T08:13:21;11.00;;;6.47;;
24325;SDS011;12448;45.532;5.290;2024-01-07T08:15:47;7.57;;;5.10;;
24325;SDS011;12448;45.532;5.290;2024-01-07T08:18:13;12.63;;;8.20;;
24325;SDS011;12448;45.532;5.290;2024-01-07T08:20:38;18.67;;;10.33;;
24325;SDS011;12448;45.532;5.290;2024-01-07T08:23:04;15.33;;;8.53;;
24325;SDS011;12448;45.532;5.290;2024-01-07T08:25:30;15.87;;;9.57;;
24325;SDS011;12448;45.532;5.290;2024-01-07T08:27:57;25.80;;;15.33;;
24325;SDS011;12448;45.532;5.290;2024-01-07T08:30:22;13.53;;;8.73;;
24325;SDS011;12448;45.532;5.290;2024-01-07T08:32:48;15.77;;;10.07;;
24325;SDS011;12448;45.532;5.290;2024-01-07T08:35:14;17.23;;;10.13;;
24325;SDS011;12448;45.532;5.290;2024-01-07T08:37:40;12.07;;;7.43;;
24325;SDS011;12448;45.532;5.290;2024-01-07T08:40:05;17.10;;;9.33;;
24325;SDS011;12448;45.532;5.290;2024-01-07T08:42:34;16.57;;;9.60;;
24325;SDS011;12448;45.532;5.290;2024-01-07T08:45:00;15.30;;;8.60;;
24325;SDS011;12448;45.532;5.290;2024-01-07T08:47:26;15.67;;;8.30;;
24325;SDS011;12448;45.532;5.290;2024-01-07T08:49:52;11.03;;;6.70;;
24325;SDS011;12448;45.532;5.290;2024-01-07T08:52:18;12.07;;;7.40;;
24325;SDS011;12448;45.532;5.290;2024-01-07T08:54:44;15.57;;;9.57;;
24325;SDS011;12448;45.532;5.290;2024-01-07T08:57:10;12.03;;;6.87;;
24325;SDS011;12448;45.532;5.290;2024-01-07T08:59:35;13.57;;;8.30;;
24325;SDS011;12448;45.532;5.290;2024-01-07T09:02:01;12.07;;;7.27;;
24325;SDS011;12448;45.532;5.290;2024-01-07T09:04:27;11.83;;;7.67;;
24325;SDS011;12448;45.532;5.290;2024-01-07T09:06:53;15.47;;;8.93;;
24325;SDS011;12448;45.532;5.290;2024-01-07T09:09:18;12.87;;;6.47;;
24325;SDS011;12448;45.532;5.290;2024-01-07T09:11:44;13.53;;;7.43;;
24325;SDS011;12448;45.532;5.290;2024-01-07T09:14:10;25.80;;;11.43;;
24325;SDS011;12448;45.532;5.290;2024-01-07T09:16:36;11.88;;;6.40;;
24325;SDS011;12448;45.532;5.290;2024-01-07T09:19:01;13.63;;;7.73;;
24325;SDS011;12448;45.532;5.290;2024-01-07T09:21:27;11.13;;;5.90;;
24325;SDS011;12448;45.532;5.290;2024-01-07T09:23:53;11.83;;;7.03;;
24325;SDS011;12448;45.532;5.290;2024-01-07T09:26:18;11.50;;;6.50;;
24325;SDS011;12448;45.532;5.290;2024-01-07T09:28:44;15.73;;;9.13;;
24325;SDS011;12448;45.532;5.290;2024-01-07T09:31:09;14.67;;;8.80;;
24325;SDS011;12448;45.532;5.290;2024-01-07T09:33:35;13.73;;;7.33;;
24325;SDS011;12448;45.532;5.290;2024-01-07T09:36:01;15.57;;;9.47;;
24325;SDS011;12448;45.532;5.290;2024-01-07T09:38:26;13.80;;;6.17;;
24325;SDS011;12448;45.532;5.290;2024-01-07T09:40:52;65.80;;;36.20;;
24325;SDS011;12448;45.532;5.290;2024-01-07T09:43:20;14.40;;;9.27;;
24325;SDS011;12448;45.532;5.290;2024-01-07T09:45:46;16.37;;;11.47;;
24325;SDS011;12448;45.532;5.290;2024-01-07T09:48:15;13.37;;;9.00;;
24325;SDS011;12448;45.532;5.290;2024-01-07T09:50:41;21.80;;;13.10;;
24325;SDS011;12448;45.532;5.290;2024-01-07T09:53:07;11.43;;;7.50;;
24325;SDS011;12448;45.532;5.290;2024-01-07T09:55:44;15.25;;;10.93;;
24325;SDS011;12448;45.532;5.290;2024-01-07T09:58:26;15.37;;;10.03;;
24325;SDS011;12448;45.532;5.290;2024-01-07T10:00:53;14.77;;;9.37;;
24325;SDS011;12448;45.532;5.290;2024-01-07T10:03:19;12.93;;;8.50;;
24325;SDS011;12448;45.532;5.290;2024-01-07T10:05:45;9.80;;;6.77;;
24325;SDS011;12448;45.532;5.290;2024-01-07T10:08:11;9.70;;;6.43;;
24325;SDS011;12448;45.532;5.290;2024-01-07T10:10:36;14.43;;;7.83;;
24325;SDS011;12448;45.532;5.290;2024-01-07T10:13:03;10.00;;;6.87;;
24325;SDS011;12448;45.532;5.290;2024-01-07T10:15:28;12.53;;;8.00;;
24325;SDS011;12448;45.532;5.290;2024-01-07T10:17:54;9.93;;;6.03;;
24325;SDS011;12448;45.532;5.290;2024-01-07T10:20:21;11.10;;;6.87;;
24325;SDS011;12448;45.532;5.290;2024-01-07T10:22:49;9.83;;;5.30;;
24325;SDS011;12448;45.532;5.290;2024-01-07T10:25:15;11.00;;;6.47;;
24325;SDS011;12448;45.532;5.290;2024-01-07T10:27:41;15.97;;;9.27;;
24325;SDS011;12448;45.532;5.290;2024-01-07T10:30:06;13.37;;;8.47;;
24325;SDS011;12448;45.532;5.290;2024-01-07T10:32:35;9.93;;;6.80;;
24325;SDS011;12448;45.532;5.290;2024-01-07T10:35:02;11.93;;;7.90;;
24325;SDS011;12448;45.532;5.290;2024-01-07T10:37:29;9.57;;;5.73;;
24325;SDS011;12448;45.532;5.290;2024-01-07T10:39:58;13.10;;;8.20;;
24325;SDS011;12448;45.532;5.290;2024-01-07T10:42:29;11.90;;;7.35;;
24325;SDS011;12448;45.532;5.290;2024-01-07T10:44:56;17.43;;;10.37;;
24325;SDS011;12448;45.532;5.290;2024-01-07T10:47:22;14.43;;;8.47;;
24325;SDS011;12448;45.532;5.290;2024-01-07T10:49:50;10.47;;;6.23;;
24325;SDS011;12448;45.532;5.290;2024-01-07T10:52:16;11.68;;;6.70;;
24325;SDS011;12448;45.532;5.290;2024-01-07T10:54:42;9.50;;;5.70;;
24325;SDS011;12448;45.532;5.290;2024-01-07T10:59:59;14.10;;;8.77;;
24325;SDS011;12448;45.532;5.290;2024-01-07T11:02:25;13.77;;;8.97;;
24325;SDS011;12448;45.532;5.290;2024-01-07T11:05:04;16.23;;;9.67;;
24325;SDS011;12448;45.532;5.290;2024-01-07T11:07:43;19.70;;;10.97;;
24325;SDS011;12448;45.532;5.290;2024-01-07T11:10:19;19.50;;;10.67;;
24325;SDS011;12448;45.532;5.290;2024-01-07T11:12:55;19.33;;;10.00;;
24325;SDS011;12448;45.532;5.290;2024-01-07T11:18:19;19.30;;;11.43;;
24325;SDS011;12448;45.532;5.290;2024-01-07T11:20:46;21.35;;;10.60;;
24325;SDS011;12448;45.532;5.290;2024-01-07T11:26:08;18.67;;;9.00;;
24325;SDS011;12448;45.532;5.290;2024-01-07T11:28:54;17.00;;;9.80;;
24325;SDS011;12448;45.532;5.290;2024-01-07T11:31:21;19.83;;;10.70;;
24325;SDS011;12448;45.532;5.290;2024-01-07T11:34:07;15.07;;;8.70;;
24325;SDS011;12448;45.532;5.290;2024-01-07T11:36:36;22.53;;;11.70;;
24325;SDS011;12448;45.532;5.290;2024-01-07T11:39:03;18.63;;;10.33;;
24325;SDS011;12448;45.532;5.290;2024-01-07T11:41:32;18.90;;;11.13;;
24325;SDS011;12448;45.532;5.290;2024-01-07T11:43:59;26.43;;;13.47;;
24325;SDS011;12448;45.532;5.290;2024-01-07T11:46:25;24.97;;;13.43;;
24325;SDS011;12448;45.532;5.290;2024-01-07T11:48:55;19.37;;;11.17;;
24325;SDS011;12448;45.532;5.290;2024-01-07T11:51:24;20.27;;;10.70;;
24325;SDS011;12448;45.532;5.290;2024-01-07T11:53:55;16.43;;;9.33;;
24325;SDS011;12448;45.532;5.290;2024-01-07T11:56:22;20.30;;;12.03;;
24325;SDS011;12448;45.532;5.290;2024-01-07T11:58:49;17.83;;;10.17;;
24325;SDS011;12448;45.532;5.290;2024-01-07T12:01:15;20.57;;;12.03;;
24325;SDS011;12448;45.532;5.290;2024-01-07T12:03:43;17.23;;;9.30;;
24325;SDS011;12448;45.532;5.290;2024-01-07T12:06:09;21.40;;;10.70;;
24325;SDS011;12448;45.532;5.290;2024-01-07T12:08:43;21.63;;;12.57;;
24325;SDS011;12448;45.532;5.290;2024-01-07T12:11:13;16.07;;;9.33;;
24325;SDS011;12448;45.532;5.290;2024-01-07T12:13:39;18.90;;;10.87;;
24325;SDS011;12448;45.532;5.290;2024-01-07T12:16:06;11.70;;;7.20;;
24325;SDS011;12448;45.532;5.290;2024-01-07T12:18:33;16.33;;;9.57;;
24325;SDS011;12448;45.532;5.290;2024-01-07T12:21:01;12.67;;;6.67;;
24325;SDS011;12448;45.532;5.290;2024-01-07T12:23:26;16.43;;;9.50;;
24325;SDS011;12448;45.532;5.290;2024-01-07T12:25:53;11.73;;;6.80;;
24325;SDS011;12448;45.532;5.290;2024-01-07T12:28:19;14.83;;;9.10;;
24325;SDS011;12448;45.532;5.290;2024-01-07T12:30:45;27.93;;;14.23;;
24325;SDS011;12448;45.532;5.290;2024-01-07T12:33:15;23.40;;;10.90;;
24325;SDS011;12448;45.532;5.290;2024-01-07T12:35:43;17.67;;;8.97;;
24325;SDS011;12448;45.532;5.290;2024-01-07T12:38:10;21.90;;;12.43;;
24325;SDS011;12448;45.532;5.290;2024-01-07T12:40:35;23.47;;;12.90;;
24325;SDS011;12448;45.532;5.290;2024-01-07T12:43:01;15.00;;;8.43;;
24325;SDS011;12448;45.532;5.290;2024-01-07T12:45:27;13.87;;;8.40;;
24325;SDS011;12448;45.532;5.290;2024-01-07T12:47:53;9.40;;;6.00;;
24325;SDS011;12448;45.532;5.290;2024-01-07T12:50:20;11.85;;;7.10;;
24325;SDS011;12448;45.532;5.290;2024-01-07T12:52:48;8.50;;;5.17;;
24325;SDS011;12448;45.532;5.290;2024-01-07T12:55:13;10.20;;;6.47;;
24325;SDS011;12448;45.532;5.290;2024-01-07T12:57:39;8.60;;;5.40;;
24325;SDS011;12448;45.532;5.290;2024-01-07T13:00:05;12.27;;;6.90;;
24325;SDS011;12448;45.532;5.290;2024-01-07T13:02:31;8.90;;;4.60;;
24325;SDS011;12448;45.532;5.290;2024-01-07T13:04:58;13.30;;;6.90;;
24325;SDS011;12448;45.532;5.290;2024-01-07T13:07:23;17.13;;;8.07;;
24325;SDS011;12448;45.532;5.290;2024-01-07T13:09:50;11.32;;;5.40;;
24325;SDS011;12448;45.532;5.290;2024-01-07T13:12:16;11.10;;;5.27;;
24325;SDS011;12448;45.532;5.290;2024-01-07T13:14:42;11.47;;;6.53;;
24325;SDS011;12448;45.532;5.290;2024-01-07T13:17:07;13.43;;;7.97;;
24325;SDS011;12448;45.532;5.290;2024-01-07T13:19:33;12.17;;;7.73;;
24325;SDS011;12448;45.532;5.290;2024-01-07T13:21:59;10.43;;;5.57;;
24325;SDS011;12448;45.532;5.290;2024-01-07T13:24:26;11.20;;;6.77;;
24325;SDS011;12448;45.532;5.290;2024-01-07T13:26:52;9.98;;;6.15;;
24325;SDS011;12448;45.532;5.290;2024-01-07T13:29:18;18.73;;;11.33;;
24325;SDS011;12448;45.532;5.290;2024-01-07T13:31:44;16.17;;;9.47;;
24325;SDS011;12448;45.532;5.290;2024-01-07T13:34:09;11.63;;;6.03;;
24325;SDS011;12448;45.532;5.290;2024-01-07T13:36:35;25.70;;;14.77;;
24325;SDS011;12448;45.532;5.290;2024-01-07T13:39:00;16.03;;;9.27;;
24325;SDS011;12448;45.532;5.290;2024-01-07T13:41:27;16.87;;;10.73;;
24325;SDS011;12448;45.532;5.290;2024-01-07T13:43:54;11.57;;;7.10;;
24325;SDS011;12448;45.532;5.290;2024-01-07T13:46:21;15.20;;;10.17;;
24325;SDS011;12448;45.532;5.290;2024-01-07T13:48:48;15.13;;;8.87;;
24325;SDS011;12448;45.532;5.290;2024-01-07T13:51:14;17.70;;;9.60;;
24325;SDS011;12448;45.532;5.290;2024-01-07T13:53:39;19.90;;;12.13;;
24325;SDS011;12448;45.532;5.290;2024-01-07T13:56:05;17.33;;;11.13;;
24325;SDS011;12448;45.532;5.290;2024-01-07T13:58:32;26.87;;;16.10;;
24325;SDS011;12448;45.532;5.290;2024-01-07T14:00:57;40.20;;;23.67;;
24325;SDS011;12448;45.532;5.290;2024-01-07T14:03:23;17.80;;;11.63;;
24325;SDS011;12448;45.532;5.290;2024-01-07T14:05:49;16.37;;;9.43;;
24325;SDS011;12448;45.532;5.290;2024-01-07T14:08:16;15.50;;;10.23;;
24325;SDS011;12448;45.532;5.290;2024-01-07T14:10:42;17.77;;;10.37;;
24325;SDS011;12448;45.532;5.290;2024-01-07T14:13:07;16.27;;;9.73;;
24325;SDS011;12448;45.532;5.290;2024-01-07T14:15:34;18.90;;;11.60;;
24325;SDS011;12448;45.532;5.290;2024-01-07T14:17:59;13.10;;;6.30;;
24325;SDS011;12448;45.532;5.290;2024-01-07T14:20:25;18.63;;;9.83;;
24325;SDS011;12448;45.532;5.290;2024-01-07T14:22:53;18.83;;;10.93;;
24325;SDS011;12448;45.532;5.290;2024-01-07T14:25:19;18.33;;;10.43;;
24325;SDS011;12448;45.532;5.290;2024-01-07T14:27:45;19.47;;;11.13;;
24325;SDS011;12448;45.532;5.290;2024-01-07T14:30:12;15.80;;;9.10;;
24325;SDS011;12448;45.532;5.290;2024-01-07T14:32:39;24.40;;;13.37;;
24325;SDS011;12448;45.532;5.290;2024-01-07T14:35:05;20.33;;;11.13;;
24325;SDS011;12448;45.532;5.290;2024-01-07T14:37:31;29.27;;;16.47;;